Carnival Valor — H3VR — position and weather

sailwx.info

Track history (hours):
 
Tides and Currents Weather Stations Pressure Air Temp Water Temp Dewpoint Dewpoint Depression Visibility Wind Speed Wind Dir Waves Ship Positions

Carnival Valor

Last reported at 2015-Jun-29 23:25 UTC. Time now 2015-Jul-03 06:15 UTC.
Position N 20°19' W 087°05'.

Type: Ship. MMSI: 354298000.

Date/timePositionNaut miles runAvg speedWind from/ knotsBaromVisibWave heightAir tempDewpointWater temp
2015-Jun-29 23:25N 20°19' W 087°05'1213.5
2015-Jun-29 22:34N 20°29' W 086°59'1 0.5
2015-Jun-29 21:31N 20°29' W 086°59'0 0.0
2015-Jun-29 20:28N 20°29' W 086°59'0 0.0
2015-Jun-29 19:33N 20°29' W 086°59'0 0.0
2015-Jun-29 18:33N 20°29' W 086°59'0 0.0
2015-Jun-29 17:33N 20°29' W 086°59'0 0.0
2015-Jun-29 16:32N 20°29' W 086°59'0 0.0
2015-Jun-29 15:32N 20°29' W 086°59'0 0.0
2015-Jun-29 14:31N 20°29' W 086°59'0 0.3
2015-Jun-29 13:33N 20°29' W 086°59'1010.2
2015-Jun-29 12:33N 20°38' W 086°54'3019.2
2015-Jun-29 11:00N 20°48' W 086°24'45217.1 270 / 161015.027.0 1.027.925.128.9
2015-Jun-28 08:32N 25°31' W 079°60'1717.5
2015-Jun-28 07:33N 25°48' W 079°59'1716.9
2015-Jun-28 06:33N 26°05' W 079°58'1716.8
2015-Jun-28 05:33N 26°21' W 079°57'1716.7
2015-Jun-28 04:33N 26°38' W 079°56'1515.3
2015-Jun-28 03:33N 26°53' W 079°56'1614.5
2015-Jun-28 02:28N 27°09' W 079°57'50610.7
2015-Jun-26 03:00N 22°30' W 072°12'481 9.4 090 / 251020.010.8 2.027.023.029.0
2015-Jun-23 23:33N 18°16' W 064°56'43513.8
2015-Jun-22 16:00N 22°24' W 071°18'   100 / 201020.010.8 2.027.020.029.0
2015-Jun-20 05:34N 27°10' W 079°47'2221.8
2015-Jun-20 04:34N 26°48' W 079°45'  
Track history (hours):
 
Tides and Currents Weather Stations Pressure Air Temp Water Temp Dewpoint Dewpoint Depression Visibility Wind Speed Wind Dir Waves Ship Positions

Carnival Valor

Last reported at 2015-Jun-29 23:25 UTC. Time now 2015-Jul-03 06:15 UTC.
Position N 20°19' W 087°05'.

Type: Ship. MMSI: 354298000.

Date/timePositionNaut miles runAvg speedWind from/ knotsBaromVisibWave heightAir tempDewpointWater temp
2015-Jun-29 23:25N 20°19' W 087°05'1213.5
2015-Jun-29 22:34N 20°29' W 086°59'1 0.5
2015-Jun-29 21:31N 20°29' W 086°59'0 0.0
2015-Jun-29 20:28N 20°29' W 086°59'0 0.0
2015-Jun-29 19:33N 20°29' W 086°59'0 0.0
2015-Jun-29 18:33N 20°29' W 086°59'0 0.0
2015-Jun-29 17:33N 20°29' W 086°59'0 0.0
2015-Jun-29 16:32N 20°29' W 086°59'0 0.0
2015-Jun-29 15:32N 20°29' W 086°59'0 0.0
2015-Jun-29 14:31N 20°29' W 086°59'0 0.3
2015-Jun-29 13:33N 20°29' W 086°59'1010.2
2015-Jun-29 12:33N 20°38' W 086°54'3019.2
2015-Jun-29 11:00N 20°48' W 086°24'45217.1 270 / 161015.027.0 1.027.925.128.9
2015-Jun-28 08:32N 25°31' W 079°60'1717.5
2015-Jun-28 07:33N 25°48' W 079°59'1716.9
2015-Jun-28 06:33N 26°05' W 079°58'1716.8
2015-Jun-28 05:33N 26°21' W 079°57'1716.7
2015-Jun-28 04:33N 26°38' W 079°56'1515.3
2015-Jun-28 03:33N 26°53' W 079°56'1614.5
2015-Jun-28 02:28N 27°09' W 079°57'50610.7
2015-Jun-26 03:00N 22°30' W 072°12'481 9.4 090 / 251020.010.8 2.027.023.029.0
2015-Jun-23 23:33N 18°16' W 064°56'43513.8
2015-Jun-22 16:00N 22°24' W 071°18'   100 / 201020.010.8 2.027.020.029.0
2015-Jun-20 05:34N 27°10' W 079°47'2221.8
2015-Jun-20 04:34N 26°48' W 079°45'  

Dump ship's entire track history